createdAt,value
2022-11-05T00:03:22.480Z,92.32
2022-11-05T00:08:40.919Z,92.29
2022-11-05T00:14:00.411Z,92.69
2022-11-05T00:19:07.507Z,92.94
2022-11-05T00:24:28.668Z,92.76
2022-11-05T00:29:30.854Z,92.89
2022-11-05T00:34:31.666Z,92.34
2022-11-05T00:39:32.472Z,92.60
2022-11-05T00:44:52.289Z,92.54
2022-11-05T00:49:53.036Z,92.18
2022-11-05T00:54:53.841Z,92.49
2022-11-05T00:59:55.998Z,92.69
2022-11-05T01:04:56.806Z,92.61
2022-11-05T01:09:57.575Z,91.99
2022-11-05T01:14:59.900Z,92.33
2022-11-05T01:20:00.699Z,92.67
2022-11-05T01:25:01.708Z,92.43
2022-11-05T01:30:04.937Z,92.75
2022-11-05T01:35:06.900Z,92.50
2022-11-05T01:40:10.240Z,92.52
2022-11-05T01:45:17.927Z,92.44
2022-11-05T01:50:29.954Z,92.08
2022-11-05T01:55:35.026Z,92.36
2022-11-05T02:00:37.707Z,92.31
2022-11-05T02:05:41.418Z,92.46
2022-11-05T02:10:44.696Z,91.80
2022-11-05T02:15:56.849Z,91.80
2022-11-05T02:21:11.661Z,91.93
2022-11-05T02:26:44.597Z,91.57
2022-11-05T02:31:55.403Z,91.96
2022-11-05T02:37:06.573Z,91.59
2022-11-05T02:42:16.301Z,91.88
2022-11-05T02:47:26.920Z,91.60
2022-11-05T02:52:35.325Z,92.29
2022-11-05T02:57:37.359Z,92.17
2022-11-05T03:02:39.758Z,92.49
2022-11-05T03:07:50.410Z,92.32
2022-11-05T03:13:02.808Z,92.60
2022-11-05T03:18:13.032Z,92.56
2022-11-05T03:23:26.612Z,92.43
2022-11-05T03:28:32.427Z,92.61
2022-11-05T03:33:37.406Z,92.60
2022-11-05T03:38:42.359Z,92.91
2022-11-05T03:43:47.905Z,92.49
2022-11-05T03:48:55.367Z,92.81
2022-11-05T03:53:58.767Z,92.84
2022-11-05T03:59:01.565Z,92.57
2022-11-05T04:04:04.250Z,92.02
2022-11-05T04:09:22.535Z,92.30
2022-11-05T04:14:23.390Z,92.28
2022-11-05T04:19:39.483Z,91.77
2022-11-05T04:24:40.336Z,92.17
2022-11-05T04:29:59.526Z,92.12
2022-11-05T04:35:01.696Z,91.98
2022-11-05T04:40:02.552Z,91.45
2022-11-05T04:45:03.474Z,91.61
2022-11-05T04:50:06.084Z,91.72
2022-11-05T04:55:07.513Z,91.02
2022-11-05T05:00:10.951Z,90.67
2022-11-05T05:05:13.733Z,91.47
2022-11-05T05:10:14.587Z,91.19
2022-11-05T05:15:15.429Z,90.90
2022-11-05T05:20:35.444Z,91.09
2022-11-05T05:25:36.208Z,91.64
2022-11-05T05:30:37.166Z,91.90
2022-11-05T05:35:40.601Z,91.33
2022-11-05T05:40:41.579Z,91.32
2022-11-05T05:45:42.354Z,91.53
2022-11-05T05:50:44.488Z,91.22
2022-11-05T05:55:45.268Z,91.74
2022-11-05T06:00:46.059Z,91.61
2022-11-05T06:05:48.988Z,91.67
2022-11-05T06:10:52.272Z,91.63
2022-11-05T06:15:53.553Z,91.56
2022-11-05T06:20:55.953Z,90.96
2022-11-05T06:26:00.855Z,91.20
2022-11-05T06:31:02.075Z,91.02
2022-11-05T06:36:05.708Z,91.21
2022-11-05T06:41:10.337Z,90.63
2022-11-05T06:46:12.477Z,91.14
2022-11-05T06:51:14.590Z,90.70
2022-11-05T06:56:15.383Z,90.55
2022-11-05T07:01:16.505Z,90.12
2022-11-05T07:06:18.829Z,89.81
2022-11-05T07:11:19.655Z,89.78
2022-11-05T07:16:20.445Z,88.97
2022-11-05T07:21:22.607Z,88.18
2022-11-05T07:26:23.411Z,88.14
2022-11-05T07:31:24.275Z,87.97
2022-11-05T07:36:26.729Z,87.33
2022-11-05T07:41:28.451Z,86.42
2022-11-05T07:46:29.310Z,86.41
2022-11-05T07:51:31.474Z,85.50
2022-11-05T07:56:34.283Z,85.11
2022-11-05T08:01:35.412Z,85.20
2022-11-05T08:06:41.933Z,85.45
2022-11-05T08:11:42.793Z,84.75
2022-11-05T08:16:43.644Z,84.39
2022-11-05T08:21:45.814Z,82.97
2022-11-05T08:26:47.747Z,83.18
2022-11-05T08:31:48.634Z,82.95
2022-11-05T08:36:50.789Z,82.88
2022-11-05T08:41:51.582Z,82.26
2022-11-05T08:46:52.755Z,81.13
2022-11-05T08:51:55.134Z,81.50
2022-11-05T08:56:55.953Z,81.33
2022-11-05T09:01:56.836Z,82.50
2022-11-05T09:06:59.060Z,82.02
2022-11-05T09:12:12.199Z,82.16
2022-11-05T09:17:18.049Z,80.10
2022-11-05T09:22:20.334Z,80.57
2022-11-05T09:27:21.394Z,79.98
2022-11-05T09:32:23.293Z,79.73
2022-11-05T09:37:25.651Z,80.68
2022-11-05T09:42:32.649Z,79.47
2022-11-05T09:47:37.635Z,78.23
2022-11-05T09:52:39.853Z,78.71
2022-11-05T09:57:46.885Z,78.26
2022-11-05T10:02:51.830Z,79.08
2022-11-05T10:07:59.396Z,78.28
2022-11-05T10:13:06.180Z,78.01
2022-11-05T10:18:15.759Z,76.34
2022-11-05T10:23:20.791Z,76.09
2022-11-05T10:28:24.829Z,76.71
2022-11-05T10:33:33.202Z,79.35
2022-11-05T10:38:35.408Z,75.29
2022-11-05T10:43:41.496Z,76.07
2022-11-05T10:48:54.078Z,75.25
2022-11-05T10:54:02.087Z,74.96
2022-11-05T10:59:12.082Z,72.38
2022-11-05T11:04:18.206Z,72.93
2022-11-05T11:09:23.787Z,71.35
2022-11-05T11:14:24.582Z,71.06
2022-11-05T11:19:28.725Z,71.27
2022-11-05T11:24:33.573Z,71.60
2022-11-05T11:29:40.505Z,71.22
2022-11-05T11:34:46.804Z,70.33
2022-11-05T11:39:52.540Z,69.43
2022-11-05T11:44:53.608Z,68.09
2022-11-05T11:49:57.139Z,67.13
2022-11-05T11:55:29.446Z,65.96
2022-11-05T12:00:32.590Z,68.03
2022-11-05T12:05:44.727Z,67.74
2022-11-05T12:10:59.174Z,65.46
2022-11-05T12:16:08.543Z,65.32
2022-11-05T12:21:34.562Z,65.31
2022-11-05T12:26:54.521Z,65.30
2022-11-05T12:32:05.676Z,66.74
2022-11-05T12:37:20.759Z,67.26
2022-11-05T12:42:42.217Z,64.99
2022-11-05T12:47:57.092Z,66.13
2022-11-05T12:53:28.121Z,66.00
2022-11-05T12:58:34.347Z,66.33
2022-11-05T13:03:43.401Z,67.43
2022-11-05T13:08:47.925Z,65.76
2022-11-05T13:14:00.603Z,66.59
2022-11-05T13:19:08.192Z,67.86
2022-11-05T13:24:16.237Z,67.52
2022-11-05T13:29:23.503Z,67.95
2022-11-05T13:34:24.427Z,65.74
2022-11-05T13:39:28.826Z,66.41
2022-11-05T13:44:59.528Z,63.40
2022-11-05T13:50:29.877Z,62.67
2022-11-05T13:55:57.088Z,64.41
2022-11-05T14:01:10.234Z,65.00
2022-11-05T14:06:11.776Z,65.43
2022-11-05T14:11:22.880Z,66.33
2022-11-05T14:16:27.002Z,66.48
2022-11-05T14:21:34.211Z,66.74
2022-11-05T14:26:35.024Z,67.43
2022-11-05T14:32:08.666Z,67.68
2022-11-05T14:37:37.068Z,67.69
2022-11-05T14:42:38.485Z,68.59
2022-11-05T14:47:45.265Z,68.27
2022-11-05T14:52:53.635Z,69.58
2022-11-05T14:58:23.248Z,68.47
2022-11-05T15:04:17.126Z,69.62
2022-11-05T15:09:28.252Z,70.73
2022-11-05T15:14:33.334Z,69.94
2022-11-05T15:19:38.045Z,71.34
2022-11-05T15:24:42.674Z,72.18
2022-11-05T15:29:44.022Z,73.03
2022-11-05T15:34:53.933Z,75.30
2022-11-05T15:39:56.431Z,76.09
2022-11-05T15:44:58.615Z,77.24
2022-11-05T15:50:03.768Z,78.09
2022-11-05T15:55:11.102Z,78.42
2022-11-05T16:00:18.468Z,78.62
2022-11-05T16:05:21.570Z,78.97
2022-11-05T16:10:26.594Z,79.91
2022-11-05T16:15:32.218Z,79.81
2022-11-05T16:20:37.000Z,80.08
2022-11-05T16:25:40.013Z,80.58
2022-11-05T16:30:40.827Z,81.02
2022-11-05T16:35:49.177Z,81.35
2022-11-05T16:40:50.006Z,82.22
2022-11-05T16:45:53.920Z,83.53
2022-11-05T16:50:56.147Z,85.12
2022-11-05T16:55:57.193Z,85.93
2022-11-05T17:01:02.855Z,86.60
2022-11-05T17:06:05.381Z,86.99
2022-11-05T17:11:06.904Z,84.66
2022-11-05T17:16:10.583Z,85.88
2022-11-05T17:21:14.125Z,85.81
2022-11-05T17:26:15.210Z,86.47
2022-11-05T17:31:17.345Z,87.01
2022-11-05T17:36:19.519Z,87.78
2022-11-05T17:41:22.231Z,86.88
2022-11-05T17:46:23.554Z,86.81
2022-11-05T17:51:25.726Z,87.19
2022-11-05T17:56:33.840Z,88.05
2022-11-05T18:01:42.798Z,88.00
2022-11-05T18:06:45.630Z,87.98
2022-11-05T18:11:46.882Z,88.23
2022-11-05T18:16:47.699Z,88.74
2022-11-05T18:21:49.835Z,88.64
2022-11-05T18:26:51.172Z,88.99
2022-11-05T18:31:52.033Z,88.59
2022-11-05T18:36:56.529Z,89.72
2022-11-05T18:41:57.592Z,88.99
2022-11-05T18:46:59.034Z,88.95
2022-11-05T18:52:01.271Z,89.54
2022-11-05T18:57:02.317Z,88.90
2022-11-05T19:02:03.608Z,89.73
2022-11-05T19:07:06.547Z,89.54
2022-11-05T19:12:08.500Z,89.12
2022-11-05T19:17:09.360Z,89.45
2022-11-05T19:22:11.746Z,89.35
2022-11-05T19:27:12.647Z,90.21
2022-11-05T19:32:13.475Z,90.14
2022-11-05T19:37:16.799Z,90.00
2022-11-05T19:42:17.599Z,89.81
2022-11-05T19:47:18.402Z,90.17
2022-11-05T19:52:20.608Z,90.26
2022-11-05T19:57:21.526Z,90.46
2022-11-05T20:02:22.500Z,90.35
2022-11-05T20:07:24.946Z,90.00
2022-11-05T20:12:25.893Z,90.74
2022-11-05T20:17:26.989Z,89.62
2022-11-05T20:22:29.257Z,90.26
2022-11-05T20:27:30.543Z,90.09
2022-11-05T20:32:32.132Z,90.61
2022-11-05T20:37:34.670Z,89.52
2022-11-05T20:42:37.273Z,89.87
2022-11-05T20:47:38.578Z,90.37
2022-11-05T20:52:41.210Z,90.18
2022-11-05T20:57:42.524Z,89.94
2022-11-05T21:02:43.572Z,89.86
2022-11-05T21:07:45.946Z,89.26
2022-11-05T21:12:47.248Z,89.68
2022-11-05T21:17:48.125Z,89.48
2022-11-05T21:22:50.598Z,90.10
2022-11-05T21:27:51.425Z,90.53
2022-11-05T21:32:53.351Z,90.12
2022-11-05T21:37:55.581Z,90.14
2022-11-05T21:42:56.393Z,89.76
2022-11-05T21:47:57.449Z,90.77
2022-11-05T21:53:17.238Z,90.12
2022-11-05T21:58:36.079Z,89.92
2022-11-05T22:03:37.088Z,90.33
2022-11-05T22:08:39.765Z,90.19
2022-11-05T22:13:40.552Z,90.21
2022-11-05T22:18:41.363Z,90.36
2022-11-05T22:23:43.539Z,91.12
2022-11-05T22:28:44.408Z,91.20
2022-11-05T22:33:45.378Z,90.96
2022-11-05T22:38:47.575Z,91.16
2022-11-05T22:43:48.890Z,90.56
2022-11-05T22:48:49.889Z,90.93
2022-11-05T22:53:52.281Z,90.83
2022-11-05T22:58:53.577Z,90.43
2022-11-05T23:03:57.337Z,90.93
2022-11-05T23:09:18.014Z,90.47
2022-11-05T23:14:18.797Z,90.77
2022-11-05T23:19:37.565Z,90.62
2022-11-05T23:24:40.048Z,91.16
2022-11-05T23:29:41.777Z,90.69
2022-11-05T23:34:42.606Z,90.98
2022-11-05T23:39:44.730Z,91.56
2022-11-05T23:45:03.013Z,91.01
2022-11-05T23:50:04.031Z,91.37
2022-11-05T23:55:06.768Z,91.25
